createdAt,value
2022-10-29T00:00:03.395Z,7.10
2022-10-29T00:02:52.477Z,7.10
2022-10-29T00:05:24.888Z,8.10
2022-10-29T00:08:04.017Z,6.90
2022-10-29T00:10:50.216Z,6.40
2022-10-29T00:13:38.462Z,7.50
2022-10-29T00:16:21.875Z,7.80
2022-10-29T00:19:08.696Z,7.10
2022-10-29T00:21:38.488Z,6.30
2022-10-29T00:24:10.457Z,6.80
2022-10-29T00:26:45.790Z,5.90
2022-10-29T00:29:15.120Z,7.40
2022-10-29T00:31:44.347Z,6.60
2022-10-29T00:34:13.503Z,6.40
2022-10-29T00:36:42.757Z,6.70
2022-10-29T00:39:17.011Z,7.10
2022-10-29T00:41:46.396Z,6.60
2022-10-29T00:44:15.163Z,7.20
2022-10-29T00:46:53.389Z,6.80
2022-10-29T00:49:39.548Z,7.10
2022-10-29T00:52:31.484Z,6.50
2022-10-29T00:55:19.382Z,7.10
2022-10-29T00:57:57.354Z,7.10
2022-10-29T01:00:57.632Z,10.20
2022-10-29T01:12:44.328Z,7.20
2022-10-29T01:16:03.087Z,7.40
2022-10-29T01:23:16.444Z,7.40
2022-10-29T01:27:02.488Z,8.10
2022-10-29T01:30:24.228Z,8.40
2022-10-29T01:33:33.009Z,7.10
2022-10-29T01:36:29.547Z,6.60
2022-10-29T01:40:11.429Z,6.30
2022-10-29T01:47:37.930Z,4.80
2022-10-29T01:54:28.276Z,4.20
2022-10-29T01:57:38.017Z,5.10
2022-10-29T02:00:23.529Z,3.90
2022-10-29T02:03:32.129Z,3.80
2022-10-29T02:08:01.978Z,3.10
2022-10-29T02:11:41.629Z,3.60
2022-10-29T02:14:55.807Z,3.40
2022-10-29T02:18:02.729Z,3.50
2022-10-29T02:24:36.417Z,3.20
2022-10-29T02:27:29.521Z,3.30
2022-10-29T02:38:34.598Z,3.40
2022-10-29T02:41:14.265Z,3.00
2022-10-29T02:44:13.270Z,3.40
2022-10-29T02:46:55.124Z,4.40
2022-10-29T02:56:35.908Z,2.70
2022-10-29T02:59:13.289Z,3.20
2022-10-29T03:01:51.971Z,3.30
2022-10-29T03:04:31.533Z,4.00
2022-10-29T03:07:18.547Z,4.10
2022-10-29T03:10:05.347Z,3.60
2022-10-29T03:13:26.739Z,4.40
2022-10-29T03:19:38.948Z,3.90
2022-10-29T03:22:40.268Z,3.80
2022-10-29T03:25:42.885Z,3.10
2022-10-29T03:28:38.148Z,3.20
2022-10-29T03:31:37.269Z,3.40
2022-10-29T03:34:36.123Z,4.50
2022-10-29T03:37:26.588Z,3.50
2022-10-29T03:41:03.404Z,3.70
2022-10-29T03:44:01.267Z,3.60
2022-10-29T03:46:50.571Z,3.90
2022-10-29T03:49:46.420Z,3.70
2022-10-29T03:55:53.028Z,4.40
2022-10-29T03:58:45.096Z,4.30
2022-10-29T04:01:27.996Z,4.80
2022-10-29T04:04:36.725Z,4.30
2022-10-29T04:08:11.568Z,4.30
2022-10-29T04:11:32.047Z,3.90
2022-10-29T04:19:13.535Z,4.80
2022-10-29T04:32:45.540Z,4.60
2022-10-29T04:47:24.765Z,4.20
2022-10-29T04:51:15.190Z,4.30
2022-10-29T04:53:51.488Z,4.80
2022-10-29T04:56:22.049Z,4.70
2022-10-29T04:59:10.187Z,4.80
2022-10-29T05:01:38.338Z,4.80
2022-10-29T05:04:05.797Z,4.70
2022-10-29T05:06:51.476Z,4.40
2022-10-29T05:09:37.156Z,4.20
2022-10-29T05:12:22.936Z,4.10
2022-10-29T05:14:50.196Z,4.30
2022-10-29T05:17:17.660Z,5.00
2022-10-29T05:19:45.118Z,4.30
2022-10-29T05:22:12.679Z,3.80
2022-10-29T05:24:40.136Z,4.10
2022-10-29T05:27:08.697Z,3.70
2022-10-29T05:29:36.179Z,3.30
2022-10-29T05:32:04.797Z,4.50
2022-10-29T05:34:32.116Z,4.20
2022-10-29T05:37:00.401Z,4.30
2022-10-29T05:39:27.956Z,4.50
2022-10-29T05:41:55.630Z,5.00
2022-10-29T05:44:23.177Z,4.60
2022-10-29T05:46:50.836Z,4.40
2022-10-29T05:49:18.202Z,4.80
2022-10-29T05:51:45.437Z,5.00
2022-10-29T05:54:31.642Z,4.80
2022-10-29T05:56:59.035Z,4.70
2022-10-29T05:59:32.652Z,4.80
2022-10-29T06:02:01.231Z,4.60
2022-10-29T06:04:29.257Z,5.10
2022-10-29T06:07:14.410Z,4.80
2022-10-29T06:09:41.676Z,5.10
2022-10-29T06:12:10.692Z,4.20
2022-10-29T06:14:38.964Z,5.50
2022-10-29T06:17:06.200Z,4.60
2022-10-29T06:19:33.513Z,4.70
2022-10-29T06:22:19.239Z,5.10
2022-10-29T06:25:06.064Z,5.00
2022-10-29T06:27:33.416Z,6.00
2022-10-29T06:30:00.976Z,7.10
2022-10-29T06:32:28.556Z,6.70
2022-10-29T06:35:14.519Z,7.70
2022-10-29T06:37:41.878Z,7.30
2022-10-29T06:40:10.157Z,7.30
2022-10-29T06:42:37.815Z,6.50
2022-10-29T06:45:06.203Z,6.50
2022-10-29T06:47:43.481Z,6.80
2022-10-29T06:50:13.860Z,6.30
2022-10-29T06:52:41.368Z,5.10
2022-10-29T06:55:09.536Z,5.10
2022-10-29T06:57:37.098Z,5.00
2022-10-29T07:00:08.502Z,5.00
2022-10-29T07:02:36.115Z,5.20
2022-10-29T07:05:03.875Z,4.50
2022-10-29T07:07:31.240Z,4.30
2022-10-29T07:09:58.586Z,4.20
2022-10-29T07:12:26.144Z,4.00
2022-10-29T07:14:53.299Z,4.40
2022-10-29T07:17:20.477Z,4.50
2022-10-29T07:19:47.815Z,4.00
2022-10-29T07:22:15.457Z,3.90
2022-10-29T07:24:43.131Z,5.40
2022-10-29T07:27:10.667Z,5.40
2022-10-29T07:29:37.938Z,4.90
2022-10-29T07:32:05.722Z,5.10
2022-10-29T07:34:33.274Z,4.70
2022-10-29T07:37:00.416Z,4.70
2022-10-29T07:39:28.211Z,4.20
2022-10-29T07:41:59.094Z,3.90
2022-10-29T07:44:26.897Z,3.50
2022-10-29T07:46:54.339Z,3.80
2022-10-29T07:49:40.133Z,3.90
2022-10-29T07:52:09.643Z,4.50
2022-10-29T07:54:37.011Z,3.70
2022-10-29T07:57:23.056Z,4.20
2022-10-29T07:59:52.001Z,4.10
2022-10-29T08:02:37.877Z,4.30
2022-10-29T08:05:06.583Z,3.90
2022-10-29T08:07:33.997Z,4.10
2022-10-29T08:10:01.155Z,5.10
2022-10-29T08:12:28.405Z,4.30
2022-10-29T08:14:55.556Z,3.80
2022-10-29T08:17:41.133Z,3.80
2022-10-29T08:20:09.836Z,3.20
2022-10-29T08:22:37.009Z,4.40
2022-10-29T08:25:05.557Z,5.20
2022-10-29T08:27:33.213Z,4.20
2022-10-29T08:30:00.584Z,3.80
2022-10-29T08:32:27.941Z,3.90
2022-10-29T08:34:56.099Z,4.10
2022-10-29T08:37:23.456Z,4.60
2022-10-29T08:39:51.730Z,3.40
2022-10-29T08:43:07.832Z,4.30
2022-10-29T08:45:53.241Z,3.70
2022-10-29T08:49:01.211Z,3.20
2022-10-29T08:51:41.392Z,4.20
2022-10-29T08:54:34.793Z,4.30
2022-10-29T08:57:15.467Z,4.50
2022-10-29T09:00:14.431Z,4.90
2022-10-29T09:03:01.829Z,4.40
2022-10-29T09:05:47.716Z,4.90
2022-10-29T09:08:48.553Z,5.00
2022-10-29T09:11:38.449Z,3.80
2022-10-29T09:14:10.308Z,3.90
2022-10-29T09:17:15.549Z,5.20
2022-10-29T09:20:55.298Z,4.00
2022-10-29T09:23:42.227Z,4.90
2022-10-29T09:26:39.671Z,4.50
2022-10-29T09:29:57.322Z,4.70
2022-10-29T09:33:02.484Z,4.40
2022-10-29T09:35:46.985Z,3.60
2022-10-29T09:38:24.609Z,3.70
2022-10-29T09:41:14.001Z,3.70
2022-10-29T09:43:45.956Z,4.10
2022-10-29T09:47:14.118Z,3.90
2022-10-29T09:50:13.528Z,3.80
2022-10-29T09:52:45.737Z,3.00
2022-10-29T09:55:42.391Z,3.50
2022-10-29T09:58:27.102Z,3.50
2022-10-29T10:01:15.122Z,3.10
2022-10-29T10:03:50.635Z,3.50
2022-10-29T10:06:20.821Z,3.40
2022-10-29T10:09:06.435Z,3.80
2022-10-29T10:11:42.649Z,3.70
2022-10-29T10:14:21.206Z,3.40
2022-10-29T10:17:01.813Z,4.10
2022-10-29T10:19:33.067Z,4.20
2022-10-29T10:22:07.910Z,4.80
2022-10-29T10:24:41.620Z,5.50
2022-10-29T10:27:19.254Z,5.80
2022-10-29T10:30:16.509Z,4.30
2022-10-29T10:32:45.436Z,4.40
2022-10-29T10:35:36.089Z,4.50
2022-10-29T10:38:22.669Z,4.90
2022-10-29T10:41:07.399Z,4.60
2022-10-29T10:43:36.640Z,4.70
2022-10-29T10:46:34.508Z,4.20
2022-10-29T10:49:21.850Z,3.70
2022-10-29T10:51:56.973Z,4.70
2022-10-29T10:54:44.834Z,4.30
2022-10-29T10:57:41.340Z,4.10
2022-10-29T11:00:22.325Z,3.80
2022-10-29T11:03:11.590Z,3.20
2022-10-29T11:06:08.434Z,3.60
2022-10-29T11:08:57.182Z,3.10
2022-10-29T11:12:09.597Z,4.10
2022-10-29T11:15:05.830Z,4.30
2022-10-29T11:17:59.437Z,4.20
2022-10-29T11:21:00.745Z,3.80
2022-10-29T11:24:09.509Z,3.70
2022-10-29T11:27:03.559Z,3.70
2022-10-29T11:30:06.657Z,4.20
2022-10-29T11:33:11.910Z,3.40
2022-10-29T11:36:26.427Z,3.90
2022-10-29T11:39:04.360Z,4.00
2022-10-29T11:41:55.272Z,4.10
2022-10-29T11:44:24.697Z,3.50
2022-10-29T11:47:20.900Z,3.80
2022-10-29T11:50:14.881Z,3.10
2022-10-29T11:53:17.670Z,3.50
2022-10-29T11:56:32.622Z,3.30
2022-10-29T11:59:33.985Z,3.40
2022-10-29T12:02:36.569Z,3.40
2022-10-29T12:05:40.997Z,3.30
2022-10-29T12:08:31.308Z,2.90
2022-10-29T12:11:42.901Z,2.80
2022-10-29T12:14:47.816Z,3.00
2022-10-29T12:17:38.155Z,2.70
2022-10-29T12:20:51.336Z,2.50
2022-10-29T12:23:51.676Z,2.60
2022-10-29T12:27:01.822Z,2.60
2022-10-29T12:29:59.593Z,2.80
2022-10-29T12:33:19.289Z,3.10
2022-10-29T12:36:29.436Z,2.60
2022-10-29T12:39:00.328Z,2.80
2022-10-29T12:41:49.235Z,2.60
2022-10-29T12:44:38.143Z,3.40
2022-10-29T12:47:36.188Z,3.30
2022-10-29T12:50:31.693Z,2.90
2022-10-29T12:53:18.795Z,3.00
2022-10-29T12:56:08.590Z,3.70
2022-10-29T12:59:24.816Z,3.20
2022-10-29T13:05:10.122Z,3.10
2022-10-29T13:08:04.880Z,3.70
2022-10-29T13:10:56.732Z,3.60
2022-10-29T13:13:41.616Z,3.40
2022-10-29T13:16:27.394Z,3.90
2022-10-29T13:19:16.550Z,3.60
2022-10-29T13:22:28.186Z,3.60
2022-10-29T13:25:35.841Z,4.70
2022-10-29T13:28:15.407Z,5.10
2022-10-29T13:30:53.381Z,4.30
2022-10-29T13:33:41.507Z,4.70
2022-10-29T13:36:17.209Z,4.10
2022-10-29T13:39:08.478Z,6.10
2022-10-29T13:41:44.285Z,5.00
2022-10-29T13:44:32.511Z,4.60
2022-10-29T13:47:06.677Z,5.00
2022-10-29T13:49:49.414Z,5.30
2022-10-29T13:52:24.525Z,5.00
2022-10-29T13:55:16.802Z,4.70
2022-10-29T13:58:10.658Z,4.20
2022-10-29T14:00:40.841Z,4.50
2022-10-29T14:04:14.996Z,5.10
2022-10-29T14:06:45.596Z,4.30
2022-10-29T14:09:37.678Z,4.90
2022-10-29T14:12:31.666Z,4.50
2022-10-29T14:15:16.898Z,4.90
2022-10-29T14:17:45.826Z,5.00
2022-10-29T14:20:28.039Z,6.10
2022-10-29T14:22:57.106Z,5.30
2022-10-29T14:25:25.705Z,5.50
2022-10-29T14:28:36.156Z,6.20
2022-10-29T14:31:26.037Z,5.80
2022-10-29T14:33:58.650Z,5.60
2022-10-29T14:36:42.362Z,5.40
2022-10-29T14:39:55.370Z,5.10
2022-10-29T14:42:36.195Z,5.60
2022-10-29T14:45:19.603Z,5.40
2022-10-29T14:47:57.317Z,5.80
2022-10-29T14:50:29.062Z,6.70
2022-10-29T14:53:25.258Z,7.40
2022-10-29T14:55:54.787Z,5.80
2022-10-29T14:58:31.442Z,6.50
2022-10-29T15:01:06.742Z,6.90
2022-10-29T15:03:36.358Z,5.10
2022-10-29T15:06:29.197Z,5.60
2022-10-29T15:09:04.491Z,5.50
2022-10-29T15:12:28.377Z,6.20
2022-10-29T15:15:09.104Z,7.00
2022-10-29T15:17:51.388Z,7.00
2022-10-29T15:20:26.496Z,6.70
2022-10-29T15:22:59.277Z,4.70
2022-10-29T15:25:39.376Z,5.50
2022-10-29T15:28:14.736Z,5.80
2022-10-29T15:30:43.555Z,5.90
2022-10-29T15:33:28.377Z,6.40
2022-10-29T15:36:14.715Z,6.20
2022-10-29T15:38:52.317Z,5.50
2022-10-29T15:41:35.351Z,5.70
2022-10-29T15:44:23.696Z,6.00
2022-10-29T15:47:29.335Z,6.50
2022-10-29T15:49:58.861Z,8.30
2022-10-29T15:53:06.137Z,8.80
2022-10-29T15:55:55.836Z,10.20
2022-10-29T15:58:24.697Z,7.60
2022-10-29T16:00:53.453Z,9.40
2022-10-29T16:03:24.764Z,9.10
2022-10-29T16:06:13.108Z,9.90
2022-10-29T16:08:50.177Z,11.80
2022-10-29T16:11:23.731Z,17.40
2022-10-29T16:13:55.533Z,17.30
2022-10-29T16:16:42.044Z,15.00
2022-10-29T16:19:11.034Z,16.20
2022-10-29T16:21:41.536Z,17.00
2022-10-29T16:24:16.056Z,19.40
2022-10-29T16:26:44.876Z,22.00
2022-10-29T16:29:17.229Z,20.90
2022-10-29T16:31:45.836Z,22.80
2022-10-29T16:34:17.190Z,21.70
2022-10-29T16:37:05.739Z,20.80
2022-10-29T16:39:35.058Z,19.50
2022-10-29T16:42:36.597Z,18.90
2022-10-29T16:45:10.622Z,20.00
2022-10-29T16:47:39.497Z,21.10
2022-10-29T16:50:33.587Z,21.80
2022-10-29T16:53:10.974Z,22.60
2022-10-29T16:55:42.861Z,23.90
2022-10-29T16:58:20.736Z,27.60
2022-10-29T17:00:50.756Z,28.50
2022-10-29T17:03:21.044Z,32.50
2022-10-29T17:05:51.898Z,30.30
2022-10-29T17:08:39.567Z,30.10
2022-10-29T17:11:13.099Z,27.90
2022-10-29T17:13:43.604Z,26.60
2022-10-29T17:16:18.137Z,26.90
2022-10-29T17:18:51.176Z,25.50
2022-10-29T17:21:19.949Z,25.50
2022-10-29T17:23:48.536Z,26.70
2022-10-29T17:26:18.776Z,28.40
2022-10-29T17:28:47.358Z,25.40
2022-10-29T17:31:16.135Z,23.10
2022-10-29T17:33:44.843Z,24.30
2022-10-29T17:36:16.066Z,21.80
2022-10-29T17:38:45.466Z,20.90
2022-10-29T17:41:14.277Z,20.70
2022-10-29T17:44:00.576Z,13.90
2022-10-29T17:46:47.897Z,15.10
2022-10-29T17:49:17.511Z,17.90
2022-10-29T17:51:47.500Z,18.70
2022-10-29T17:54:17.123Z,19.10
2022-10-29T17:56:46.319Z,17.40
2022-10-29T17:59:32.759Z,15.20
2022-10-29T18:02:01.538Z,16.10
2022-10-29T18:04:30.504Z,16.20
2022-10-29T18:06:59.175Z,15.40
2022-10-29T18:09:27.979Z,15.90
2022-10-29T18:12:14.392Z,17.50
2022-10-29T18:14:43.279Z,16.90
2022-10-29T18:17:12.458Z,16.30
2022-10-29T18:19:58.197Z,15.20
2022-10-29T18:22:26.836Z,15.70
2022-10-29T18:24:55.637Z,15.30
2022-10-29T18:27:24.415Z,14.00
2022-10-29T18:29:53.136Z,15.10
2022-10-29T18:32:22.717Z,14.60
2022-10-29T18:34:51.436Z,12.80
2022-10-29T18:37:20.388Z,13.20
2022-10-29T18:39:49.268Z,12.90
2022-10-29T18:42:17.977Z,12.20
2022-10-29T18:44:46.757Z,12.40
2022-10-29T18:47:15.567Z,11.70
2022-10-29T18:49:44.236Z,14.20
2022-10-29T18:52:12.917Z,13.10
2022-10-29T18:54:41.618Z,16.20
2022-10-29T18:57:12.971Z,17.20
2022-10-29T18:59:44.099Z,17.90
2022-10-29T19:02:13.000Z,17.80
2022-10-29T19:04:41.977Z,15.00
2022-10-29T19:07:10.868Z,12.50
2022-10-29T19:09:39.558Z,11.30
2022-10-29T19:12:08.556Z,10.30
2022-10-29T19:14:54.437Z,10.90
2022-10-29T19:17:40.443Z,10.30
2022-10-29T19:20:10.077Z,10.70
2022-10-29T19:22:38.837Z,10.80
2022-10-29T19:25:08.257Z,11.90
2022-10-29T19:27:37.057Z,9.80
2022-10-29T19:30:06.537Z,11.20
2022-10-29T19:32:52.837Z,10.80
2022-10-29T19:35:21.627Z,10.70
2022-10-29T19:37:50.320Z,10.30
2022-10-29T19:40:19.117Z,11.80
2022-10-29T19:42:48.957Z,13.10
2022-10-29T19:45:20.356Z,13.30
2022-10-29T19:48:08.597Z,11.00
2022-10-29T19:50:37.296Z,14.80
2022-10-29T19:53:06.285Z,13.60
2022-10-29T19:55:35.170Z,14.60
2022-10-29T19:58:03.757Z,12.80
2022-10-29T20:00:32.463Z,10.10
2022-10-29T20:03:01.221Z,8.90
2022-10-29T20:05:29.886Z,9.20
2022-10-29T20:07:59.052Z,10.30
2022-10-29T20:10:28.319Z,10.60
2022-10-29T20:13:14.716Z,10.70
2022-10-29T20:15:43.516Z,9.50
2022-10-29T20:18:12.925Z,9.40
2022-10-29T20:20:41.696Z,10.10
2022-10-29T20:23:10.396Z,9.60
2022-10-29T20:25:39.376Z,9.60
2022-10-29T20:28:08.057Z,7.50
2022-10-29T20:30:36.856Z,8.70
2022-10-29T20:33:05.543Z,10.00
2022-10-29T20:35:34.538Z,10.40
2022-10-29T20:38:03.118Z,10.10
2022-10-29T20:40:32.141Z,8.60
2022-10-29T20:43:18.464Z,6.40
2022-10-29T20:45:47.296Z,9.40
2022-10-29T20:48:36.677Z,10.60
2022-10-29T20:51:05.758Z,9.40
2022-10-29T20:53:34.457Z,9.30
2022-10-29T20:56:03.358Z,9.10
2022-10-29T20:58:32.134Z,10.20
2022-10-29T21:01:14.188Z,8.60
2022-10-29T21:03:44.464Z,10.50
2022-10-29T21:06:17.832Z,11.70
2022-10-29T21:09:04.436Z,10.60
2022-10-29T21:11:33.157Z,10.50
2022-10-29T21:14:19.756Z,12.10
2022-10-29T21:17:07.161Z,9.70
2022-10-29T21:19:53.482Z,10.70
2022-10-29T21:22:22.276Z,12.20
2022-10-29T21:25:09.517Z,11.60
2022-10-29T21:27:38.178Z,12.30
2022-10-29T21:30:08.057Z,11.40
2022-10-29T21:32:36.776Z,11.30
2022-10-29T21:35:22.776Z,11.20
2022-10-29T21:37:51.472Z,11.80
2022-10-29T21:40:20.258Z,10.70
2022-10-29T21:42:49.276Z,11.10
2022-10-29T21:45:17.928Z,11.10
2022-10-29T21:47:48.255Z,11.70
2022-10-29T21:50:34.775Z,12.10
2022-10-29T21:53:03.774Z,11.80
2022-10-29T21:55:33.244Z,12.70
2022-10-29T21:58:02.658Z,12.60
2022-10-29T22:00:41.415Z,10.60
2022-10-29T22:03:16.534Z,11.10
2022-10-29T22:05:47.616Z,9.30
2022-10-29T22:08:37.617Z,10.20
2022-10-29T22:14:07.183Z,8.90
2022-10-29T22:16:39.243Z,10.20
2022-10-29T22:19:08.544Z,9.00
2022-10-29T22:21:45.637Z,8.50
2022-10-29T22:24:15.017Z,9.80
2022-10-29T22:26:44.867Z,10.60
2022-10-29T22:35:22.488Z,10.00
2022-10-29T22:38:13.656Z,8.50
2022-10-29T22:40:43.044Z,8.20
2022-10-29T22:43:21.276Z,8.80
2022-10-29T22:45:59.384Z,9.00
2022-10-29T22:48:53.085Z,7.70
2022-10-29T22:51:29.808Z,7.90
2022-10-29T22:54:21.618Z,8.10
2022-10-29T22:57:07.896Z,7.50
2022-10-29T22:59:59.925Z,8.10
2022-10-29T23:02:42.197Z,8.10
2022-10-29T23:06:00.069Z,7.90
2022-10-29T23:08:35.757Z,8.90
2022-10-29T23:11:20.680Z,8.20
2022-10-29T23:14:01.640Z,7.40
2022-10-29T23:16:39.477Z,7.30
2022-10-29T23:19:15.229Z,7.50
2022-10-29T23:22:01.154Z,8.50
2022-10-29T23:24:51.284Z,8.20
2022-10-29T23:27:22.545Z,7.70
2022-10-29T23:30:08.808Z,6.50
2022-10-29T23:32:40.794Z,7.10
2022-10-29T23:35:18.768Z,7.00
2022-10-29T23:37:48.028Z,7.70
2022-10-29T23:40:25.368Z,7.80
2022-10-29T23:43:22.870Z,7.90
2022-10-29T23:45:54.079Z,7.30
2022-10-29T23:48:31.794Z,6.60
2022-10-29T23:51:28.945Z,6.70
2022-10-29T23:54:05.748Z,7.40
2022-10-29T23:56:41.368Z,7.50
2022-10-29T23:59:18.157Z,8.50
